UKLR/RWN METAR and TAF weather

Enter ICAO airport designator
Station Type Date Time Source
UKLR METAR 2019/12/07 15:00 UTC NOAA

UKLR 071500Z 25008MPS 9999 OVC024 04/M01 Q1009 R29/090070 NOSIG


Station Type Date Time Source
UKLR Decoded METAR 2019/12/07 15:00 UTC NOAA

Rivne, Ukraine (UKLR) 50-35N 026-08E
Dec 07, 2019 - 10:00 AM EST / 2019.12.07 1500 UTC
Wind: from the WSW (250 degrees) at 18 MPH (16 KT):0
Visibility: greater than 7 mile(s):0
Sky conditions: overcast
Temperature: 39 F (4 C)
Dew Point: 30 F (-1 C)
Relative Humidity: 69%
Pressure (altimeter): 29.80 in. Hg (1009 hPa)
ob: UKLR 071500Z 25008MPS 9999 OVC024 04/M01 Q1009 R29/090070 NOSIG
cycle: 15

Station Type Date Time Source
UKLR TAF 2019/08/16 12:15 UTC NOAA

TAF TAF UKLR 161105Z 1612/1821 35003MPS 9999 BKN020 SCT023CB

Example: see airport list